Terminal Aerodrome Forecast
Issued by NWS

Home | Current Version | Previous Version | Text Only | Print | Product List | Glossary On
Versions: 1 2 3 4 5 6 7 8 9 10 11 12 13 14 15
000
FTUS42 KRAH 202340
TAFRWI
TAF
KRWI 202340Z 2100/2124 02012G19KT P6SM OVC040
      TEMPO 2108/2112 BKN020
     FM211300 02012KT P6SM FEW250=

USA.gov is the U.S. government's official web portal to all federal, state and local government web resources and services.